CDT,Max TemperatureF,Mean TemperatureF,Min TemperatureF,Max Dew PointF,MeanDew PointF,Min DewpointF,Max Humidity, Mean Humidity, Min Humidity, Max Sea Level PressureIn, Mean Sea Level PressureIn, Min Sea Level PressureIn, Max VisibilityMiles, Mean VisibilityMiles, Min VisibilityMiles, Max Wind SpeedMPH, Mean Wind SpeedMPH, Max Gust SpeedMPH,PrecipitationIn, CloudCover, Events, WindDirDegrees
2013-3-1,36,33,30,27,24,19,78,69,59,30.36,30.29,30.23,10,10,10,13,4,17,0.00,8,,350
2013-3-2,46,34,21,23,20,17,88,62,33,30.43,30.33,30.22,10,10,10,10,4,,0.00,1,,2
2013-3-3,62,42,23,32,28,21,92,52,29,30.20,29.92,29.66,10,10,9,15,7,26,0.00,0,,160
2013-3-4,70,54,37,41,36,32,83,57,31,29.97,29.68,29.57,10,10,10,14,6,37,0.00,0,,54
2013-3-5,48,39,28,37,23,17,93,54,32,30.41,30.29,30.10,10,10,10,16,5,24,0.01,1,,316
2013-3-6,46,32,19,26,20,16,88,58,32,30.48,30.39,30.25,10,10,10,8,2,,0.00,0,,87
2013-3-7,57,38,26,30,26,24,96,77,30,30.26,30.16,30.08,10,9,7,17,1,24,0.40,0,,170
2013-3-8,59,54,50,43,39,33,67,53,44,30.18,30.09,29.97,10,10,10,23,15,29,0.00,7,,161
2013-3-9,63,59,54,58,50,36,100,76,44,29.95,29.74,29.64,10,8,2,21,13,32,0.14,7,Rain-Thunderstorm,171
2013-3-10,55,42,30,52,34,23,93,83,64,30.05,29.84,29.62,10,10,4,13,7,25,0.00,7,,273
2013-3-11,52,39,27,24,19,10,81,56,19,30.06,30.03,29.98,10,10,10,9,4,,0.00,2,,287
2013-3-12,61,44,28,40,28,23,92,57,27,30.38,30.23,30.07,10,10,10,14,3,24,0.06,2,Rain,338
2013-3-13,55,38,21,26,22,16,92,59,25,30.52,30.43,30.35,10,10,10,10,2,,0.00,0,,126
2013-3-14,80,54,28,39,33,26,89,55,19,30.32,30.18,30.06,10,10,9,16,4,25,0.00,0,,222
2013-3-15,82,60,37,46,41,35,96,55,23,30.09,29.89,29.71,10,10,9,14,3,21,0.00,0,,210
2013-3-16,64,54,45,45,41,35,80,60,43,29.92,29.82,29.70,10,10,9,20,10,29,0.00,2,,27
2013-3-17,43,40,37,43,38,34,100,91,71,29.92,29.83,29.72,10,6,2,18,12,29,0.01,8,Rain,31
2013-3-18,62,49,32,40,34,20,100,71,21,30.07,29.92,29.74,10,10,7,14,3,21,0.02,4,Rain,353
2013-3-19,57,42,28,31,24,14,89,52,21,30.29,30.18,30.06,10,10,10,14,4,25,0.00,0,,53
2013-3-20,48,36,25,31,21,14,96,58,26,30.44,30.30,30.10,10,10,8,14,4,21,0.00,0,,33
2013-3-21,43,38,34,36,26,16,93,64,35,30.04,29.88,29.78,10,10,10,18,9,25,0.00,6,,97
2013-3-22,48,40,35,36,34,32,89,79,62,29.96,29.91,29.84,10,9,5,12,7,17,0.00,8,,36
2013-3-23,42,38,35,41,38,35,100,96,86,29.96,29.87,29.78,8,4,1,22,9,22,0.12,8,Rain,37
2013-3-24,39,32,26,36,28,20,100,89,52,30.20,29.95,29.81,10,4,0,13,8,29,0.20,7,Fog-Snow,329
2013-3-25,41,32,26,23,20,17,81,62,43,30.42,30.32,30.21,10,10,10,9,5,,0.00,5,,311
2013-3-26,51,34,18,25,20,16,96,63,28,30.49,30.39,30.30,10,10,10,8,1,,0.00,0,,130
2013-3-27,64,45,26,33,27,23,92,53,28,30.29,30.19,30.09,10,10,10,22,5,26,0.00,1,,164
2013-3-28,72,51,30,50,40,28,92,65,42,30.19,30.13,30.05,10,10,6,13,3,,0.00,1,,162
2013-3-29,72,58,44,57,52,44,100,77,55,30.16,30.11,30.06,10,10,6,12,4,16,0.00,6,,127
2013-3-30,77,64,51,57,55,52,100,84,50,30.10,29.96,29.82,10,9,1,13,5,24,0.52,5,Rain-Thunderstorm,169
2013-3-31,72,59,46,52,46,36,100,76,28,30.02,29.97,29.90,10,8,2,15,2,26,0.16,1,Rain-Thunderstorm,180